createdAt,value
2018-06-25T00:00:04.709Z,6.30
2018-06-25T00:01:04.698Z,6.50
2018-06-25T00:02:04.692Z,6.20
2018-06-25T00:03:04.681Z,5.90
2018-06-25T00:04:04.680Z,4.60
2018-06-25T00:05:04.667Z,5.80
2018-06-25T00:06:04.663Z,5.20
2018-06-25T00:07:04.656Z,5.80
2018-06-25T00:08:04.651Z,6.80
2018-06-25T00:09:04.645Z,6.60
2018-06-25T00:10:04.648Z,5.20
2018-06-25T00:11:04.631Z,6.10
2018-06-25T00:12:04.648Z,5.10
2018-06-25T00:13:04.619Z,5.80
2018-06-25T00:14:04.611Z,6.30
2018-06-25T00:15:04.598Z,5.50
2018-06-25T00:16:04.597Z,7.70
2018-06-25T00:17:04.589Z,6.40
2018-06-25T00:18:04.586Z,6.60
2018-06-25T00:19:04.572Z,5.60
2018-06-25T00:20:04.569Z,5.70
2018-06-25T00:21:04.557Z,6.40
2018-06-25T00:22:04.552Z,5.60
2018-06-25T00:23:04.547Z,6.50
2018-06-25T00:24:04.536Z,5.30
2018-06-25T00:25:04.530Z,6.00
2018-06-25T00:26:04.527Z,5.40
2018-06-25T00:27:04.516Z,5.70
2018-06-25T00:28:04.511Z,5.90
2018-06-25T00:29:04.501Z,6.50
2018-06-25T00:30:04.497Z,5.40
2018-06-25T00:31:04.490Z,6.40
2018-06-25T00:32:04.481Z,5.10
2018-06-25T00:33:04.479Z,6.00
2018-06-25T00:34:04.473Z,4.80
2018-06-25T00:35:04.459Z,5.70
2018-06-25T00:36:04.456Z,4.60
2018-06-25T00:37:04.445Z,5.50
2018-06-25T00:38:04.443Z,4.70
2018-06-25T00:39:04.435Z,5.40
2018-06-25T00:40:04.429Z,5.60
2018-06-25T00:41:04.421Z,5.20
2018-06-25T00:42:04.414Z,5.90
2018-06-25T00:43:04.408Z,5.30
2018-06-25T00:44:04.403Z,5.50
2018-06-25T00:45:04.391Z,5.60
2018-06-25T00:46:04.383Z,6.70
2018-06-25T00:47:04.376Z,5.30
2018-06-25T00:48:04.372Z,5.00
2018-06-25T00:49:04.362Z,6.10
2018-06-25T00:50:04.356Z,6.90
2018-06-25T00:51:04.352Z,5.60
2018-06-25T00:52:04.345Z,6.70
2018-06-25T00:53:05.062Z,6.80
2018-06-25T00:54:04.327Z,5.60
2018-06-25T00:55:04.321Z,5.50
2018-06-25T00:56:04.314Z,6.00
2018-06-25T00:57:04.313Z,4.40
2018-06-25T00:58:04.302Z,5.20
2018-06-25T00:59:04.293Z,6.40
2018-06-25T01:00:04.288Z,6.30
2018-06-25T01:01:04.281Z,6.80
2018-06-25T01:02:04.272Z,6.20
2018-06-25T01:03:04.268Z,8.20
2018-06-25T01:04:04.264Z,8.00
2018-06-25T01:05:04.256Z,5.60
2018-06-25T01:06:04.309Z,5.30
2018-06-25T01:07:04.238Z,7.40
2018-06-25T01:08:04.231Z,7.20
2018-06-25T01:09:04.224Z,6.10
2018-06-25T01:10:04.216Z,6.60
2018-06-25T01:11:04.215Z,6.90
2018-06-25T01:12:04.208Z,6.10
2018-06-25T01:13:04.196Z,6.20
2018-06-25T01:14:04.195Z,5.80
2018-06-25T01:15:04.180Z,6.80
2018-06-25T01:16:04.176Z,7.10
2018-06-25T01:17:04.168Z,7.80
2018-06-25T01:18:04.162Z,6.30
2018-06-25T01:19:04.156Z,6.20
2018-06-25T01:20:04.147Z,7.60
2018-06-25T01:21:04.139Z,6.80
2018-06-25T01:22:04.138Z,7.60
2018-06-25T01:23:04.128Z,6.30
2018-06-25T01:24:04.120Z,8.20
2018-06-25T01:25:04.118Z,6.80
2018-06-25T01:26:04.105Z,6.80
2018-06-25T01:27:04.100Z,8.30
2018-06-25T01:28:04.091Z,7.70
2018-06-25T01:29:05.071Z,6.30
2018-06-25T01:30:04.079Z,7.90
2018-06-25T01:31:04.072Z,8.70
2018-06-25T01:32:04.067Z,9.00
2018-06-25T01:33:04.057Z,8.70
2018-06-25T01:34:04.062Z,8.80
2018-06-25T01:35:04.044Z,11.20
2018-06-25T01:36:04.036Z,7.60
2018-06-25T01:37:04.038Z,8.50
2018-06-25T01:38:04.024Z,8.60
2018-06-25T01:39:04.023Z,8.70
2018-06-25T01:40:04.011Z,9.60
2018-06-25T01:41:04.017Z,9.90
2018-06-25T01:42:04.002Z,9.40
2018-06-25T01:43:03.993Z,8.30
2018-06-25T01:44:03.984Z,8.90
2018-06-25T01:45:03.989Z,9.20
2018-06-25T01:46:03.978Z,9.40
2018-06-25T01:47:03.965Z,9.20
2018-06-25T01:48:03.957Z,9.60
2018-06-25T01:49:03.951Z,12.10
2018-06-25T01:50:03.941Z,9.80
2018-06-25T01:51:03.936Z,8.50
2018-06-25T01:52:03.927Z,10.10
2018-06-25T01:53:03.923Z,10.00
2018-06-25T01:54:03.918Z,10.10
2018-06-25T01:55:03.906Z,11.30
2018-06-25T01:56:03.949Z,8.90
2018-06-25T01:57:03.893Z,10.50
2018-06-25T01:58:03.887Z,10.70
2018-06-25T01:59:03.877Z,10.70
2018-06-25T02:00:03.871Z,11.60
2018-06-25T02:01:03.869Z,13.70
2018-06-25T02:02:03.864Z,9.10
2018-06-25T02:03:03.853Z,11.70
2018-06-25T02:04:03.849Z,13.70
2018-06-25T02:05:03.836Z,11.90
2018-06-25T02:06:03.835Z,12.20
2018-06-25T02:07:03.827Z,10.70
2018-06-25T02:08:03.818Z,10.80
2018-06-25T02:09:03.811Z,11.80
2018-06-25T02:10:03.808Z,12.40
2018-06-25T02:11:03.798Z,11.00
2018-06-25T02:12:03.797Z,10.60
2018-06-25T02:13:03.786Z,9.60
2018-06-25T02:14:03.773Z,12.20
2018-06-25T02:15:03.773Z,9.90
2018-06-25T02:16:03.765Z,11.20
2018-06-25T02:17:03.772Z,10.20
2018-06-25T02:18:03.748Z,12.60
2018-06-25T02:19:03.749Z,12.60
2018-06-25T02:20:03.736Z,10.90
2018-06-25T02:21:03.730Z,13.20
2018-06-25T02:22:03.722Z,12.30
2018-06-25T02:23:03.715Z,12.80
2018-06-25T02:24:03.710Z,16.50
2018-06-25T02:25:03.701Z,11.80
2018-06-25T02:26:03.706Z,13.70
2018-06-25T02:27:03.691Z,14.20
2018-06-25T02:28:03.678Z,13.40
2018-06-25T02:29:03.672Z,12.80
2018-06-25T02:30:03.674Z,13.00
2018-06-25T02:31:03.672Z,12.90
2018-06-25T02:32:03.657Z,10.60
2018-06-25T02:33:03.719Z,9.60
2018-06-25T02:34:04.594Z,12.70
2018-06-25T02:35:03.634Z,10.40
2018-06-25T02:36:03.651Z,10.40
2018-06-25T02:37:03.625Z,12.00
2018-06-25T02:38:03.606Z,12.60
2018-06-25T02:39:03.605Z,12.80
2018-06-25T02:40:03.595Z,13.90
2018-06-25T02:41:03.592Z,14.20
2018-06-25T02:42:03.586Z,12.50
2018-06-25T02:43:03.574Z,12.80
2018-06-25T02:44:03.582Z,12.20
2018-06-25T02:45:03.562Z,16.20
2018-06-25T02:46:03.561Z,10.70
2018-06-25T02:47:03.550Z,12.50
2018-06-25T02:48:03.603Z,11.30
2018-06-25T02:49:03.534Z,11.00
2018-06-25T02:50:03.526Z,13.00
2018-06-25T02:51:03.524Z,13.10
2018-06-25T02:52:03.512Z,13.20
2018-06-25T02:53:03.511Z,13.80
2018-06-25T02:54:03.496Z,11.60
2018-06-25T02:55:03.498Z,15.80
2018-06-25T02:56:03.489Z,11.00
2018-06-25T02:57:03.479Z,12.10
2018-06-25T02:58:03.470Z,13.40
2018-06-25T02:59:03.471Z,14.60
2018-06-25T03:00:03.461Z,14.30
2018-06-25T03:01:03.455Z,14.40
2018-06-25T03:02:03.451Z,12.90
2018-06-25T03:03:03.436Z,15.10
2018-06-25T03:04:03.427Z,14.90
2018-06-25T03:05:04.114Z,13.40
2018-06-25T03:06:03.415Z,13.40
2018-06-25T03:07:03.404Z,15.10
2018-06-25T03:08:03.401Z,17.70
2018-06-25T03:09:03.395Z,15.50
2018-06-25T03:10:03.390Z,16.10
2018-06-25T03:11:03.379Z,17.00
2018-06-25T03:12:03.376Z,16.90
2018-06-25T03:13:03.370Z,16.30
2018-06-25T03:14:03.356Z,15.60
2018-06-25T03:15:03.351Z,15.40
2018-06-25T03:16:03.343Z,15.60
2018-06-25T03:17:03.335Z,15.60
2018-06-25T03:18:03.336Z,15.10
2018-06-25T03:19:03.330Z,14.00
2018-06-25T03:20:03.324Z,14.60
2018-06-25T03:21:03.307Z,18.90
2018-06-25T03:22:03.299Z,15.90
2018-06-25T03:23:03.295Z,16.50
2018-06-25T03:24:03.286Z,18.30
2018-06-25T03:25:03.280Z,17.60
2018-06-25T03:26:03.273Z,16.70
2018-06-25T03:27:03.266Z,16.90
2018-06-25T03:28:04.124Z,17.20
2018-06-25T03:29:03.255Z,17.80
2018-06-25T03:30:03.250Z,17.80
2018-06-25T03:31:03.245Z,18.00
2018-06-25T03:32:03.227Z,16.50
2018-06-25T03:33:03.228Z,18.30
2018-06-25T03:34:03.216Z,17.70
2018-06-25T03:35:03.210Z,17.70
2018-06-25T03:36:03.204Z,17.00
2018-06-25T03:37:03.194Z,14.50
2018-06-25T03:38:03.187Z,16.80
2018-06-25T03:39:03.185Z,15.60
2018-06-25T03:40:03.173Z,18.70
2018-06-25T03:41:03.161Z,17.20
2018-06-25T03:42:03.161Z,16.30
2018-06-25T03:43:03.150Z,19.40
2018-06-25T03:44:03.155Z,18.70
2018-06-25T03:45:03.137Z,16.70
2018-06-25T03:46:03.127Z,19.00
2018-06-25T03:47:03.122Z,19.80
2018-06-25T03:48:03.114Z,17.20
2018-06-25T03:49:03.109Z,18.10
2018-06-25T03:50:03.103Z,20.30
2018-06-25T03:51:03.094Z,17.00
2018-06-25T03:52:03.084Z,18.60
2018-06-25T03:53:03.082Z,17.70
2018-06-25T03:54:03.093Z,18.70
2018-06-25T03:55:03.067Z,18.50
2018-06-25T03:56:03.061Z,17.00
2018-06-25T03:57:03.054Z,17.00
2018-06-25T03:58:03.042Z,16.80
2018-06-25T03:59:03.037Z,18.50
2018-06-25T04:00:03.033Z,18.70
2018-06-25T04:01:03.095Z,17.70
2018-06-25T04:02:03.019Z,17.10
2018-06-25T04:03:03.020Z,18.90
2018-06-25T04:04:03.004Z,16.70
2018-06-25T04:05:02.992Z,17.10
2018-06-25T04:06:02.986Z,15.60
2018-06-25T04:07:02.982Z,19.20
2018-06-25T04:08:02.971Z,17.00
2018-06-25T04:09:02.970Z,19.00
2018-06-25T04:10:02.962Z,18.70
2018-06-25T04:11:02.974Z,16.80
2018-06-25T04:12:02.973Z,18.50
2018-06-25T04:13:02.941Z,18.00
2018-06-25T04:14:02.931Z,21.40
2018-06-25T04:15:02.922Z,17.90
2018-06-25T04:16:02.917Z,20.30
2018-06-25T04:17:02.913Z,21.60
2018-06-25T04:18:02.905Z,18.00
2018-06-25T04:19:02.896Z,19.10
2018-06-25T04:20:02.886Z,22.20
2018-06-25T04:21:02.885Z,19.90
2018-06-25T04:22:02.876Z,19.30
2018-06-25T04:23:02.871Z,20.30
2018-06-25T04:24:02.860Z,20.70
2018-06-25T04:25:02.860Z,19.60
2018-06-25T04:26:02.848Z,18.50
2018-06-25T04:27:02.836Z,20.80
2018-06-25T04:28:02.830Z,20.60
2018-06-25T04:29:03.633Z,20.60
2018-06-25T04:30:02.822Z,22.60
2018-06-25T04:31:02.816Z,20.80
2018-06-25T04:32:02.802Z,20.20
2018-06-25T04:33:02.800Z,21.10
2018-06-25T04:34:02.790Z,20.90
2018-06-25T04:35:02.778Z,19.90
2018-06-25T04:36:02.773Z,21.60
2018-06-25T04:37:02.771Z,22.50
2018-06-25T04:38:02.760Z,21.40
2018-06-25T04:39:02.754Z,21.50
2018-06-25T04:40:02.752Z,21.20
2018-06-25T04:41:02.740Z,17.90
2018-06-25T04:42:02.731Z,20.00
2018-06-25T04:43:02.723Z,21.80
2018-06-25T04:44:02.717Z,20.60
2018-06-25T04:45:02.715Z,19.80
2018-06-25T04:46:02.705Z,20.00
2018-06-25T04:47:02.700Z,19.80
2018-06-25T04:48:02.692Z,20.50
2018-06-25T04:49:02.683Z,22.50
2018-06-25T04:50:02.674Z,22.10
2018-06-25T04:51:02.673Z,23.20
2018-06-25T04:52:02.667Z,19.90
2018-06-25T04:53:02.655Z,21.50
2018-06-25T04:54:02.651Z,20.90
2018-06-25T04:55:02.639Z,20.90
2018-06-25T04:56:02.630Z,24.70
2018-06-25T04:57:02.627Z,21.50
2018-06-25T04:58:02.623Z,20.20
2018-06-25T04:59:02.613Z,19.30
2018-06-25T05:00:02.606Z,20.60
2018-06-25T05:01:02.625Z,21.90
2018-06-25T05:02:02.593Z,20.50
2018-06-25T05:03:02.585Z,22.00
2018-06-25T05:04:02.579Z,22.20
2018-06-25T05:05:02.579Z,21.90
2018-06-25T05:06:02.567Z,20.30
2018-06-25T05:07:02.564Z,16.10
2018-06-25T05:08:02.554Z,21.70
2018-06-25T05:09:02.565Z,19.40
2018-06-25T05:10:02.541Z,21.20
2018-06-25T05:11:02.544Z,19.10
2018-06-25T05:12:02.539Z,19.60
2018-06-25T05:13:02.519Z,18.30
2018-06-25T05:14:02.508Z,17.70
2018-06-25T05:15:02.502Z,22.30
2018-06-25T05:16:02.498Z,22.20
2018-06-25T05:17:02.492Z,22.90
2018-06-25T05:18:02.482Z,19.60
2018-06-25T05:19:02.474Z,18.10
2018-06-25T05:20:02.477Z,18.50
2018-06-25T05:21:02.468Z,21.70
2018-06-25T05:22:02.476Z,20.20
2018-06-25T05:23:02.449Z,22.90
2018-06-25T05:24:02.449Z,25.20
2018-06-25T05:25:02.438Z,19.50
2018-06-25T05:26:02.432Z,19.20
2018-06-25T05:27:02.422Z,21.40
2018-06-25T05:28:02.420Z,21.60
2018-06-25T05:29:02.411Z,20.50
2018-06-25T05:30:02.411Z,21.10
2018-06-25T05:31:02.398Z,22.40
2018-06-25T05:32:02.390Z,20.70
2018-06-25T05:33:02.389Z,19.40
2018-06-25T05:34:02.382Z,22.20
2018-06-25T05:35:02.371Z,19.80
2018-06-25T05:36:02.362Z,17.40
2018-06-25T05:37:02.355Z,22.30
2018-06-25T05:38:02.351Z,21.20
2018-06-25T05:39:02.347Z,17.90
2018-06-25T05:40:02.333Z,20.20
2018-06-25T05:41:02.332Z,17.80
2018-06-25T05:42:02.325Z,18.00
2018-06-25T05:43:02.341Z,22.30
2018-06-25T05:44:02.309Z,21.80
2018-06-25T05:45:02.301Z,20.20
2018-06-25T05:46:02.297Z,20.80
2018-06-25T05:47:02.286Z,17.30
2018-06-25T05:48:02.290Z,20.20
2018-06-25T05:49:02.280Z,20.50
2018-06-25T05:50:02.272Z,17.10
2018-06-25T05:51:02.263Z,23.30
2018-06-25T05:52:02.258Z,20.90
2018-06-25T05:53:02.249Z,20.60
2018-06-25T05:54:02.243Z,16.10
2018-06-25T05:55:02.236Z,18.80
2018-06-25T05:56:02.231Z,15.10
2018-06-25T05:57:02.224Z,18.90
2018-06-25T05:58:02.220Z,18.50
2018-06-25T05:59:02.315Z,20.70
2018-06-25T06:00:02.201Z,20.50
2018-06-25T06:01:02.194Z,21.60
2018-06-25T06:02:02.190Z,19.40
2018-06-25T06:03:02.183Z,21.50
2018-06-25T06:04:02.176Z,20.00
2018-06-25T06:05:02.224Z,17.70
2018-06-25T06:06:02.162Z,19.50
2018-06-25T06:07:02.157Z,17.00
2018-06-25T06:08:02.148Z,20.00
2018-06-25T06:09:02.162Z,16.70
2018-06-25T06:10:02.139Z,17.10
2018-06-25T06:11:02.134Z,23.00
2018-06-25T06:12:02.132Z,19.60
2018-06-25T06:13:02.119Z,19.00
2018-06-25T06:14:02.146Z,18.60
2018-06-25T06:15:02.108Z,19.70
2018-06-25T06:16:02.101Z,16.90
2018-06-25T06:17:02.096Z,16.00
2018-06-25T06:18:02.089Z,14.80
2018-06-25T06:19:02.081Z,16.40
2018-06-25T06:20:02.074Z,16.50
2018-06-25T06:21:02.069Z,16.80
2018-06-25T06:22:02.059Z,13.80
2018-06-25T06:23:02.058Z,16.60
2018-06-25T06:24:02.051Z,17.30
2018-06-25T06:25:02.047Z,15.60
2018-06-25T06:26:02.040Z,18.30
2018-06-25T06:27:02.031Z,15.80
2018-06-25T06:28:02.024Z,15.80
2018-06-25T06:29:02.030Z,17.80
2018-06-25T06:30:02.040Z,16.10
2018-06-25T06:31:02.006Z,18.00
2018-06-25T06:32:02.030Z,18.50
2018-06-25T06:33:02.008Z,16.00
2018-06-25T06:34:01.989Z,16.00
2018-06-25T06:35:01.983Z,16.60
2018-06-25T06:36:01.975Z,17.40
2018-06-25T06:37:01.973Z,17.90
2018-06-25T06:38:01.984Z,16.20
2018-06-25T06:39:01.956Z,14.80
2018-06-25T06:40:01.978Z,17.00
2018-06-25T06:41:01.949Z,16.50
2018-06-25T06:42:01.947Z,12.10
2018-06-25T06:43:01.936Z,16.40
2018-06-25T06:44:01.929Z,14.90
2018-06-25T06:45:01.926Z,15.20
2018-06-25T06:46:01.923Z,13.50
2018-06-25T06:47:01.914Z,14.90
2018-06-25T06:48:01.926Z,17.50
2018-06-25T06:49:01.906Z,15.40
2018-06-25T06:50:01.896Z,13.50
2018-06-25T06:51:01.896Z,15.90
2018-06-25T06:52:01.889Z,15.70
2018-06-25T06:53:01.875Z,12.80
2018-06-25T06:54:01.876Z,16.60
2018-06-25T06:55:01.870Z,14.30
2018-06-25T06:56:01.859Z,16.50
2018-06-25T06:57:01.859Z,14.60
2018-06-25T06:58:01.854Z,15.50
2018-06-25T06:59:01.845Z,14.00
2018-06-25T07:00:01.840Z,14.40
2018-06-25T07:01:01.831Z,14.60
2018-06-25T07:02:01.851Z,14.70
2018-06-25T07:03:01.824Z,15.10
2018-06-25T07:04:01.815Z,11.60
2018-06-25T07:05:01.809Z,15.80
2018-06-25T07:06:01.805Z,13.10
2018-06-25T07:07:01.802Z,15.10
2018-06-25T07:08:01.796Z,12.50
2018-06-25T07:09:01.785Z,12.80
2018-06-25T07:10:01.780Z,14.90
2018-06-25T07:11:01.773Z,13.70
2018-06-25T07:12:02.694Z,12.30
2018-06-25T07:13:01.760Z,12.00
2018-06-25T07:14:01.757Z,12.30
2018-06-25T07:15:01.750Z,12.90
2018-06-25T07:16:01.748Z,11.10
2018-06-25T07:17:01.769Z,11.60
2018-06-25T07:18:01.737Z,11.10
2018-06-25T07:19:01.729Z,10.70
2018-06-25T07:20:01.728Z,13.10
2018-06-25T07:21:01.723Z,11.20
2018-06-25T07:22:01.716Z,8.30
2018-06-25T07:23:01.709Z,9.90
2018-06-25T07:24:01.702Z,7.90
2018-06-25T07:25:01.717Z,7.70
2018-06-25T07:26:01.691Z,12.80
2018-06-25T07:27:01.690Z,9.50
2018-06-25T07:28:01.687Z,10.00
2018-06-25T07:29:01.686Z,10.10
2018-06-25T07:30:01.684Z,11.30
2018-06-25T07:31:01.674Z,7.80
2018-06-25T07:32:01.673Z,9.10
2018-06-25T07:33:01.661Z,9.70
2018-06-25T07:34:01.663Z,8.10
2018-06-25T07:35:01.682Z,10.80
2018-06-25T07:36:01.652Z,8.40
2018-06-25T07:37:01.645Z,10.30
2018-06-25T07:38:01.835Z,10.50
2018-06-25T07:39:04.314Z,8.60
2018-06-25T07:40:01.672Z,11.20
2018-06-25T07:41:04.445Z,8.70
2018-06-25T07:42:04.703Z,10.00
2018-06-25T07:43:04.266Z,9.70
2018-06-25T07:44:04.571Z,10.70
2018-06-25T07:45:04.018Z,10.70
2018-06-25T07:46:05.656Z,10.60
2018-06-25T07:47:04.032Z,7.70
2018-06-25T07:48:05.041Z,11.70
2018-06-25T07:49:04.509Z,10.40
2018-06-25T07:50:04.848Z,9.00
2018-06-25T07:51:06.022Z,11.50
2018-06-25T07:52:04.585Z,11.30
2018-06-25T07:53:07.019Z,7.60
2018-06-25T07:54:03.926Z,9.60
2018-06-25T07:55:04.552Z,9.00
2018-06-25T07:56:03.263Z,9.50
2018-06-25T07:57:04.166Z,9.90
2018-06-25T07:58:04.047Z,8.10
2018-06-25T07:59:01.546Z,9.40
2018-06-25T08:00:03.697Z,10.20
2018-06-25T08:01:01.554Z,7.90
2018-06-25T08:02:01.555Z,10.10
2018-06-25T08:03:03.488Z,10.60
2018-06-25T08:04:01.540Z,10.50
2018-06-25T08:05:01.580Z,9.70
2018-06-25T08:06:01.554Z,10.70
2018-06-25T08:07:01.529Z,11.30
2018-06-25T08:08:01.509Z,10.90
2018-06-25T08:09:01.516Z,9.10
2018-06-25T08:10:01.520Z,9.70
2018-06-25T08:11:01.496Z,12.00
2018-06-25T08:12:01.494Z,11.60
2018-06-25T08:13:01.487Z,10.00
2018-06-25T08:14:01.488Z,8.20
2018-06-25T08:15:01.481Z,8.90
2018-06-25T08:16:01.471Z,7.60
2018-06-25T08:17:01.478Z,8.60
2018-06-25T08:18:01.466Z,10.60
2018-06-25T08:19:01.466Z,9.50
2018-06-25T08:20:01.459Z,8.90
2018-06-25T08:21:01.453Z,7.30
2018-06-25T08:22:01.454Z,8.20
2018-06-25T08:23:01.511Z,9.80
2018-06-25T08:24:01.441Z,8.10
2018-06-25T08:25:01.442Z,7.70
2018-06-25T08:26:01.436Z,10.70
2018-06-25T08:27:01.429Z,10.70
2018-06-25T08:28:01.427Z,10.00
2018-06-25T08:29:01.426Z,9.00
2018-06-25T08:30:01.546Z,8.70
2018-06-25T08:31:01.416Z,9.20
2018-06-25T08:32:01.412Z,10.20
2018-06-25T08:33:01.409Z,8.70
2018-06-25T08:34:01.434Z,10.50
2018-06-25T08:35:01.399Z,9.50
2018-06-25T08:36:01.397Z,10.40
2018-06-25T08:37:01.439Z,10.70
2018-06-25T08:38:01.388Z,9.70
2018-06-25T08:39:01.386Z,11.30
2018-06-25T08:40:01.398Z,8.90
2018-06-25T08:41:01.381Z,9.60
2018-06-25T08:42:01.381Z,9.90
2018-06-25T08:43:01.376Z,10.50
2018-06-25T08:44:02.244Z,10.00
2018-06-25T08:45:01.370Z,10.80
2018-06-25T08:46:01.363Z,10.30
2018-06-25T08:47:01.361Z,8.50
2018-06-25T08:48:01.358Z,11.80
2018-06-25T08:49:01.358Z,9.40
2018-06-25T08:50:01.353Z,7.90
2018-06-25T08:51:01.350Z,9.00
2018-06-25T08:52:01.400Z,8.60
2018-06-25T08:53:01.343Z,8.60
2018-06-25T08:54:01.337Z,9.00
2018-06-25T08:55:01.334Z,7.70
2018-06-25T08:56:01.336Z,10.20
2018-06-25T08:57:01.354Z,9.70
2018-06-25T08:58:01.331Z,8.20
2018-06-25T08:59:01.356Z,9.60
2018-06-25T09:00:01.327Z,10.80
2018-06-25T09:01:01.317Z,9.20
2018-06-25T09:02:01.315Z,9.60
2018-06-25T09:03:01.376Z,7.70
2018-06-25T09:04:01.305Z,9.60
2018-06-25T09:05:01.303Z,7.70
2018-06-25T09:06:01.303Z,5.80
2018-06-25T09:07:01.297Z,8.20
2018-06-25T09:08:01.293Z,7.70
2018-06-25T09:09:01.294Z,7.60
2018-06-25T09:10:01.289Z,6.30
2018-06-25T09:11:01.285Z,9.70
2018-06-25T09:12:01.297Z,6.80
2018-06-25T09:13:01.287Z,6.60
2018-06-25T09:14:01.279Z,6.10
2018-06-25T09:15:01.270Z,8.80
2018-06-25T09:16:01.272Z,7.20
2018-06-25T09:17:01.266Z,7.70
2018-06-25T09:18:01.268Z,8.60
2018-06-25T09:19:01.260Z,6.80
2018-06-25T09:20:01.267Z,6.80
2018-06-25T09:21:01.257Z,5.50
2018-06-25T09:22:01.307Z,8.10
2018-06-25T09:23:01.248Z,6.50
2018-06-25T09:24:01.247Z,6.70
2018-06-25T09:25:01.240Z,6.30
2018-06-25T09:26:01.238Z,6.30
2018-06-25T09:27:01.255Z,6.20
2018-06-25T09:28:01.270Z,6.10
2018-06-25T09:29:01.227Z,6.90
2018-06-25T09:30:01.230Z,8.90
2018-06-25T09:31:01.221Z,8.90
2018-06-25T09:32:01.223Z,7.50
2018-06-25T09:33:01.219Z,6.40
2018-06-25T09:34:01.220Z,6.30
2018-06-25T09:35:01.215Z,5.10
2018-06-25T09:36:01.210Z,5.40
2018-06-25T09:37:01.210Z,7.00
2018-06-25T09:38:01.211Z,5.20
2018-06-25T09:39:01.206Z,5.40
2018-06-25T09:40:01.209Z,4.70
2018-06-25T09:41:01.332Z,4.70
2018-06-25T09:42:01.204Z,5.10
2018-06-25T09:43:01.200Z,5.00
2018-06-25T09:44:01.201Z,5.20
2018-06-25T09:45:01.204Z,6.30
2018-06-25T09:46:01.840Z,5.00
2018-06-25T09:47:01.253Z,5.20
2018-06-25T09:48:01.192Z,5.00
2018-06-25T09:49:01.190Z,4.30
2018-06-25T09:50:01.200Z,3.50
2018-06-25T09:51:01.189Z,4.10
2018-06-25T09:52:01.190Z,5.20
2018-06-25T09:53:01.189Z,4.40
2018-06-25T09:54:01.189Z,10.30
2018-06-25T09:55:01.300Z,4.40
2018-06-25T09:56:01.188Z,8.10
2018-06-25T09:57:01.185Z,4.80
2018-06-25T09:58:01.185Z,6.20
2018-06-25T09:59:01.187Z,5.20
2018-06-25T10:00:01.185Z,4.10
2018-06-25T10:01:01.183Z,4.50
2018-06-25T10:02:01.181Z,4.60
2018-06-25T10:03:01.179Z,4.30
2018-06-25T10:04:01.260Z,5.30
2018-06-25T10:05:01.178Z,2.40
2018-06-25T10:06:01.179Z,4.70
2018-06-25T10:07:01.177Z,4.10
2018-06-25T10:08:01.185Z,4.10
2018-06-25T10:09:01.179Z,4.20
2018-06-25T10:10:01.180Z,5.10
2018-06-25T10:11:01.180Z,4.30
2018-06-25T10:12:01.802Z,4.80
2018-06-25T10:13:01.176Z,4.70
2018-06-25T10:14:01.184Z,4.30
2018-06-25T10:15:01.184Z,3.60
2018-06-25T10:16:01.178Z,5.10
2018-06-25T10:17:01.182Z,4.20
2018-06-25T10:18:01.179Z,5.00
2018-06-25T10:19:01.177Z,4.50
2018-06-25T10:20:01.175Z,4.00
2018-06-25T10:21:01.177Z,4.20
2018-06-25T10:22:01.180Z,3.40
2018-06-25T10:23:01.174Z,4.20
2018-06-25T10:24:01.184Z,4.10
2018-06-25T10:25:01.174Z,4.90
2018-06-25T10:26:01.175Z,4.50
2018-06-25T10:27:01.178Z,3.30
2018-06-25T10:28:01.175Z,3.30
2018-06-25T10:29:01.178Z,4.20
2018-06-25T10:30:01.181Z,2.70
2018-06-25T10:31:01.183Z,3.80
2018-06-25T10:32:01.196Z,4.60
2018-06-25T10:33:01.184Z,4.20
2018-06-25T10:34:01.184Z,3.70
2018-06-25T10:35:01.184Z,3.90
2018-06-25T10:36:01.184Z,4.10
2018-06-25T10:37:01.184Z,4.00
2018-06-25T10:38:01.182Z,3.00
2018-06-25T10:39:01.182Z,3.80
2018-06-25T10:40:01.185Z,3.80
2018-06-25T10:41:01.216Z,3.70
2018-06-25T10:42:01.244Z,5.10
2018-06-25T10:43:01.183Z,4.30
2018-06-25T10:44:01.182Z,4.70
2018-06-25T10:45:01.185Z,4.80
2018-06-25T10:46:01.186Z,3.40
2018-06-25T10:47:01.184Z,3.90
2018-06-25T10:48:01.185Z,3.80
2018-06-25T10:49:01.817Z,3.80
2018-06-25T10:50:01.188Z,2.50
2018-06-25T10:51:01.190Z,3.60
2018-06-25T10:52:01.190Z,3.30
2018-06-25T10:53:01.191Z,3.60
2018-06-25T10:54:01.193Z,3.20
2018-06-25T10:55:01.195Z,3.90
2018-06-25T10:56:01.193Z,4.60
2018-06-25T10:57:01.197Z,5.00
2018-06-25T10:58:01.195Z,3.80
2018-06-25T10:59:01.197Z,3.80
2018-06-25T11:00:01.548Z,4.20
2018-06-25T11:01:01.281Z,4.80
2018-06-25T11:02:01.198Z,3.80
2018-06-25T11:03:01.199Z,4.50
2018-06-25T11:04:01.201Z,3.50
2018-06-25T11:05:01.214Z,4.00
2018-06-25T11:06:01.200Z,3.70
2018-06-25T11:07:01.262Z,3.30
2018-06-25T11:08:01.199Z,3.60
2018-06-25T11:09:01.198Z,4.50
2018-06-25T11:10:01.198Z,4.40
2018-06-25T11:11:01.203Z,2.60
2018-06-25T11:12:01.205Z,4.50
2018-06-25T11:13:01.261Z,3.40
2018-06-25T11:14:01.204Z,4.70
2018-06-25T11:15:01.210Z,3.60
2018-06-25T11:16:01.212Z,3.80
2018-06-25T11:17:01.211Z,4.00
2018-06-25T11:18:01.216Z,3.50
2018-06-25T11:19:01.843Z,4.10
2018-06-25T11:20:01.216Z,3.40
2018-06-25T11:21:01.219Z,4.40
2018-06-25T11:22:01.223Z,2.80
2018-06-25T11:23:01.226Z,2.50
2018-06-25T11:24:01.227Z,3.10
2018-06-25T11:25:01.237Z,4.40
2018-06-25T11:26:01.231Z,4.70
2018-06-25T11:27:01.401Z,3.90
2018-06-25T11:28:01.241Z,4.20
2018-06-25T11:29:01.244Z,4.90
2018-06-25T11:30:01.251Z,3.80
2018-06-25T11:31:01.251Z,2.60
2018-06-25T11:32:01.256Z,4.40
2018-06-25T11:33:01.260Z,4.20
2018-06-25T11:34:01.259Z,4.00
2018-06-25T11:35:01.262Z,4.10
2018-06-25T11:36:01.296Z,4.10
2018-06-25T11:37:01.271Z,3.70
2018-06-25T11:38:01.274Z,3.90
2018-06-25T11:39:01.279Z,3.50
2018-06-25T11:40:01.284Z,3.60
2018-06-25T11:41:01.854Z,4.80
2018-06-25T11:42:01.284Z,3.10
2018-06-25T11:43:01.287Z,3.10
2018-06-25T11:44:01.288Z,5.00
2018-06-25T11:45:01.288Z,2.60
2018-06-25T11:46:01.291Z,3.70
2018-06-25T11:47:01.292Z,3.50
2018-06-25T11:48:01.297Z,4.20
2018-06-25T11:49:01.300Z,3.90
2018-06-25T11:50:01.306Z,3.10
2018-06-25T11:51:01.306Z,3.60
2018-06-25T11:52:01.310Z,3.20
2018-06-25T11:53:01.314Z,3.30
2018-06-25T11:54:01.870Z,1.70
2018-06-25T11:55:01.321Z,2.80
2018-06-25T11:56:01.320Z,2.90
2018-06-25T11:57:01.325Z,4.00
2018-06-25T11:58:01.330Z,3.90
2018-06-25T11:59:01.329Z,3.70
2018-06-25T12:00:01.392Z,4.20
2018-06-25T12:01:01.339Z,4.20
2018-06-25T12:02:01.350Z,5.00
2018-06-25T12:03:01.394Z,3.60
2018-06-25T12:04:01.344Z,3.80
2018-06-25T12:05:01.348Z,3.00
2018-06-25T12:06:01.348Z,4.60
2018-06-25T12:07:01.351Z,4.30
2018-06-25T12:08:01.353Z,3.70
2018-06-25T12:09:01.356Z,3.50
2018-06-25T12:10:01.356Z,4.40
2018-06-25T12:11:01.361Z,3.60
2018-06-25T12:12:01.365Z,2.50
2018-06-25T12:13:01.370Z,3.40
2018-06-25T12:14:01.375Z,4.00
2018-06-25T12:15:01.373Z,3.70
2018-06-25T12:16:01.368Z,3.20
2018-06-25T12:17:01.378Z,2.90
2018-06-25T12:18:01.379Z,2.90
2018-06-25T12:19:01.384Z,2.60
2018-06-25T12:20:01.417Z,2.60
2018-06-25T12:21:01.386Z,3.10
2018-06-25T12:22:01.403Z,3.60
2018-06-25T12:23:01.427Z,3.60
2018-06-25T12:24:01.393Z,2.20
2018-06-25T12:25:01.397Z,4.20
2018-06-25T12:26:01.406Z,2.80
2018-06-25T12:27:01.407Z,2.40
2018-06-25T12:28:01.412Z,3.00
2018-06-25T12:29:01.415Z,4.30
2018-06-25T12:30:01.426Z,4.00
2018-06-25T12:31:01.419Z,2.70
2018-06-25T12:32:01.444Z,2.90
2018-06-25T12:33:01.429Z,3.40
2018-06-25T12:34:01.434Z,3.20
2018-06-25T12:35:01.460Z,3.40
2018-06-25T12:36:01.444Z,2.80
2018-06-25T12:37:01.445Z,2.80
2018-06-25T12:38:01.531Z,4.00
2018-06-25T12:39:01.457Z,2.60
2018-06-25T12:40:01.460Z,4.30
2018-06-25T12:41:01.463Z,2.90
2018-06-25T12:42:01.468Z,3.40
2018-06-25T12:43:01.478Z,2.60
2018-06-25T12:44:01.476Z,3.20
2018-06-25T12:45:01.480Z,3.60
2018-06-25T12:46:01.482Z,2.90
2018-06-25T12:47:01.487Z,3.10
2018-06-25T12:48:01.488Z,3.00
2018-06-25T12:49:01.498Z,2.50
2018-06-25T12:50:01.494Z,3.30
2018-06-25T12:51:01.501Z,3.70
2018-06-25T12:52:01.505Z,2.70
2018-06-25T12:53:01.511Z,2.40
2018-06-25T12:54:01.562Z,3.10
2018-06-25T12:55:01.514Z,3.30
2018-06-25T12:56:01.523Z,3.80
2018-06-25T12:57:01.571Z,4.20
2018-06-25T12:58:01.525Z,3.10
2018-06-25T12:59:01.569Z,3.70
2018-06-25T13:00:01.535Z,2.70
2018-06-25T13:01:01.538Z,3.80
2018-06-25T13:02:01.545Z,3.70
2018-06-25T13:03:01.545Z,2.40
2018-06-25T13:04:01.552Z,2.70
2018-06-25T13:05:01.552Z,2.90
2018-06-25T13:06:01.558Z,2.90